Time;durP1;ratioP1;P1;durP2;ratioP2;P2;SDS_P1;SDS_P2;PMS_P1;PMS_P2;Temp;Humidity;BMP_temperature;BMP_pressure;BME280_temperature;BME280_humidity;BME280_pressure;Samples;Min_cycle;Max_cycle;Signal;HPM_P1;HPM_P2
2023/08/20 00:00:22;;;;;;;23.13;21.03;;;;;;;21.96;100.00;100827.78;5052140;28;20208;-77
2023/08/20 00:02:52;;;;;;;22.47;20.53;;;;;;;21.89;100.00;100831.78;5052739;28;20227;-77
2023/08/20 00:05:20;;;;;;;23.93;21.63;;;;;;;21.89;100.00;100837.09;5052608;28;20213;-77
2023/08/20 00:07:46;;;;;;;22.63;20.73;;;;;;;21.80;100.00;100828.75;5052726;28;20679;-77
2023/08/20 00:10:13;;;;;;;23.60;21.10;;;;;;;21.87;100.00;100825.72;5052227;28;20247;-77
2023/08/20 00:12:40;;;;;;;20.47;18.63;;;;;;;21.80;100.00;100836.72;5052398;28;20226;-77
2023/08/20 00:15:08;;;;;;;22.97;20.70;;;;;;;21.88;100.00;100849.50;5051827;28;20209;-77
2023/08/20 00:17:35;;;;;;;22.17;20.27;;;;;;;21.56;100.00;100838.16;5044397;28;20270;-76
2023/08/20 00:20:04;;;;;;;20.20;18.53;;;;;;;21.78;100.00;100837.72;5051917;28;20658;-76
2023/08/20 00:22:35;;;;;;;21.80;19.50;;;;;;;21.88;100.00;100844.19;5052331;28;20336;-76
2023/08/20 00:25:02;;;;;;;19.63;18.03;;;;;;;22.03;100.00;100863.69;5052007;28;20251;-76
2023/08/20 00:27:29;;;;;;;20.63;18.93;;;;;;;21.89;100.00;100869.00;5051949;28;20201;-76
2023/08/20 00:29:57;;;;;;;19.27;17.67;;;;;;;21.99;100.00;100870.16;5051767;28;20213;-76
2023/08/20 00:32:23;;;;;;;23.83;17.90;;;;;;;21.91;100.00;100883.06;5052092;28;20240;-76
2023/08/20 00:34:50;;;;;;;18.47;16.13;;;;;;;21.84;100.00;100887.84;5051906;28;20205;-76
2023/08/20 00:37:17;;;;;;;17.90;16.13;;;;;;;22.02;100.00;100888.56;5051602;28;20744;-76
2023/08/20 00:39:44;;;;;;;17.97;16.27;;;;;;;22.14;100.00;100901.16;5051719;28;20578;-77
2023/08/20 00:42:10;;;;;;;14.77;13.30;;;;;;;22.28;100.00;100902.13;5051669;28;20237;-77
2023/08/20 00:44:37;;;;;;;15.57;14.27;;;;;;;22.36;100.00;100913.19;5051638;28;20212;-77
2023/08/20 00:47:05;;;;;;;15.90;14.37;;;;;;;22.35;100.00;100922.94;5051794;28;20548;-76
2023/08/20 00:49:32;;;;;;;15.13;13.93;;;;;;;22.39;100.00;100935.09;5051479;28;20204;-77
2023/08/20 00:52:00;;;;;;;16.70;15.30;;;;;;;22.19;100.00;100938.09;5051567;28;20229;-77
2023/08/20 00:54:28;;;;;;;15.87;14.47;;;;;;;21.87;100.00;100910.75;5051779;28;20219;-77
2023/08/20 00:56:55;;;;;;;14.70;13.40;;;;;;;21.86;100.00;100911.69;5051554;28;20233;-76
2023/08/20 00:59:22;;;;;;;15.57;14.17;;;;;;;22.19;100.00;100920.31;5051258;28;20234;-77
2023/08/20 01:01:48;;;;;;;14.37;13.03;;;;;;;22.16;100.00;100931.16;5052183;28;20228;-76
2023/08/20 01:04:17;;;;;;;16.07;14.27;;;;;;;22.05;100.00;100936.25;5051445;28;20208;-76
2023/08/20 01:06:50;;;;;;;14.57;13.27;;;;;;;22.07;100.00;100922.88;5051697;28;20323;-76
2023/08/20 01:09:26;;;;;;;15.97;14.47;;;;;;;22.10;100.00;100928.88;5051326;28;20509;-76
2023/08/20 01:11:58;;;;;;;14.67;13.43;;;;;;;22.18;100.00;100937.25;5051712;28;20647;-76
2023/08/20 01:14:25;;;;;;;15.73;14.33;;;;;;;21.95;100.00;100946.56;5050294;28;20613;-77
2023/08/20 01:16:51;;;;;;;16.80;15.20;;;;;;;21.96;100.00;100927.03;5051047;28;20264;-76
2023/08/20 01:19:21;;;;;;;16.70;14.30;;;;;;;22.12;100.00;100931.41;5050918;28;20213;-76
2023/08/20 01:22:01;;;;;;;15.93;14.60;;;;;;;22.06;100.00;100937.97;5051675;28;20240;-77
2023/08/20 01:24:47;;;;;;;16.70;14.43;;;;;;;21.99;100.00;100932.16;5051052;28;20218;-76
2023/08/20 01:27:29;;;;;;;16.13;14.63;;;;;;;21.91;100.00;100936.22;5053061;28;20579;-76
2023/08/20 01:29:58;;;;;;;16.03;13.90;;;;;;;21.94;100.00;100947.53;5055174;28;20212;-77
2023/08/20 01:32:25;;;;;;;14.80;13.40;;;;;;;21.85;100.00;100940.09;5055571;28;20256;-77
2023/08/20 01:34:53;;;;;;;14.93;13.50;;;;;;;22.05;100.00;100938.06;5055382;28;20586;-76
2023/08/20 01:37:19;;;;;;;12.60;11.50;;;;;;;22.15;100.00;100949.88;5055103;28;20231;-76
2023/08/20 01:39:46;;;;;;;13.87;12.57;;;;;;;22.22;100.00;100967.19;5055250;28;20690;-77
2023/08/20 01:42:12;;;;;;;14.00;12.53;;;;;;;22.06;100.00;100984.97;5055293;28;20232;-76
2023/08/20 01:44:39;;;;;;;12.47;10.73;;;;;;;22.05;100.00;100988.56;5046594;28;20216;-76
2023/08/20 01:47:07;;;;;;;11.23;10.20;;;;;;;22.07;100.00;100999.97;5055487;28;20224;-76
2023/08/20 01:49:33;;;;;;;10.70;9.80;;;;;;;22.09;100.00;101024.69;5054775;28;20806;-76
2023/08/20 01:52:00;;;;;;;10.73;9.73;;;;;;;22.18;100.00;101037.44;5055070;28;20706;-76
2023/08/20 01:54:26;;;;;;;9.67;8.87;;;;;;;22.18;100.00;101051.59;5054717;28;20208;-77
2023/08/20 01:56:53;;;;;;;10.93;9.07;;;;;;;22.14;100.00;101070.44;5054827;28;20217;-76
2023/08/20 01:59:19;;;;;;;11.23;9.93;;;;;;;22.19;100.00;101068.41;5054562;28;20206;-76
2023/08/20 02:01:46;;;;;;;10.23;9.40;;;;;;;22.13;100.00;101082.91;5054912;28;20695;-77
2023/08/20 02:04:13;;;;;;;10.23;9.30;;;;;;;21.91;100.00;101079.75;5054752;28;20198;-77
2023/08/20 02:06:40;;;;;;;9.50;8.70;;;;;;;21.84;100.00;101065.09;5054463;28;20694;-76
2023/08/20 02:09:06;;;;;;;10.13;9.43;;;;;;;21.67;100.00;101055.41;5054736;28;20204;-76
2023/08/20 02:11:35;;;;;;;9.20;8.40;;;;;;;21.31;100.00;101009.50;5054288;28;20232;-76
2023/08/20 02:14:02;;;;;;;8.77;8.07;;;;;;;21.25;100.00;100979.75;5054528;28;20202;-76
2023/08/20 02:16:29;;;;;;;7.93;7.23;;;;;;;21.33;100.00;100957.16;5054678;28;20239;-76
2023/08/20 02:18:55;;;;;;;9.17;7.70;;;;;;;21.32;100.00;100955.44;5054398;28;20689;-76
2023/08/20 02:21:23;;;;;;;8.23;7.03;;;;;;;21.37;100.00;100949.88;5054563;28;20223;-76
2023/08/20 02:23:50;;;;;;;7.80;7.13;;;;;;;21.32;100.00;100955.44;5054210;28;20213;-75
2023/08/20 02:26:16;;;;;;;11.07;7.07;;;;;;;21.22;100.00;100964.84;5054462;28;20203;-75
2023/08/20 02:28:43;;;;;;;6.97;6.37;;;;;;;21.15;100.00;100974.97;5054021;28;20205;-76
2023/08/20 02:31:09;;;;;;;7.07;6.43;;;;;;;21.14;100.00;100973.25;5054543;28;20216;-76
2023/08/20 02:33:36;;;;;;;7.43;6.83;;;;;;;21.04;100.00;100972.03;5054090;28;20238;-76
2023/08/20 02:36:03;;;;;;;7.57;6.87;;;;;;;20.86;100.00;100973.03;5054366;28;20233;-75
2023/08/20 02:38:31;;;;;;;9.80;6.87;;;;;;;20.83;100.00;100963.41;5052870;28;20694;-75
2023/08/20 02:40:58;;;;;;;7.87;7.27;;;;;;;20.88;100.00;100942.81;5054371;28;20213;-76
2023/08/20 02:43:25;;;;;;;7.20;6.50;;;;;;;20.90;100.00;100943.59;5053786;28;20204;-76
2023/08/20 02:45:51;;;;;;;8.43;7.73;;;;;;;20.86;100.00;100947.34;5054177;28;20655;-76
2023/08/20 02:48:19;;;;;;;8.63;7.37;;;;;;;20.82;100.00;100944.00;5054072;28;20209;-76
2023/08/20 02:50:45;;;;;;;7.60;6.90;;;;;;;20.84;100.00;100930.66;5053953;28;20205;-76
2023/08/20 02:53:12;;;;;;;7.93;7.23;;;;;;;20.92;100.00;100938.19;5053418;28;20232;-75
2023/08/20 02:55:40;;;;;;;8.00;7.20;;;;;;;21.38;100.00;100979.00;5053875;28;20556;-76
2023/08/20 02:58:07;;;;;;;6.90;6.20;;;;;;;21.49;100.00;101014.78;5053169;28;20282;-76
2023/08/20 03:00:34;;;;;;;8.67;6.77;;;;;;;21.48;100.00;101019.22;5053823;28;20210;-76
2023/08/20 03:03:02;;;;;;;6.47;5.93;;;;;;;21.61;100.00;101028.22;5053960;28;20241;-76
2023/08/20 03:05:29;;;;;;;6.63;6.10;;;;;;;21.71;100.00;101035.69;5053390;28;20208;-76
2023/08/20 03:07:55;;;;;;;6.10;5.60;;;;;;;21.68;100.00;101052.66;5053317;28;20570;-75
2023/08/20 03:10:21;;;;;;;5.83;5.33;;;;;;;21.63;100.00;101081.28;5053553;28;20213;-76
2023/08/20 03:12:49;;;;;;;6.23;5.63;;;;;;;21.70;100.00;101082.66;5053361;28;20703;-76
2023/08/20 03:15:16;;;;;;;5.40;5.00;;;;;;;21.76;100.00;101074.38;5053238;28;20202;-76
2023/08/20 03:17:42;;;;;;;5.27;4.87;;;;;;;21.81;100.00;101068.78;5053487;28;20233;-76
2023/08/20 03:20:10;;;;;;;4.60;4.30;;;;;;;21.85;100.00;101077.44;5053148;28;20209;-76
2023/08/20 03:22:38;;;;;;;5.67;4.90;;;;;;;21.85;100.00;101080.94;5053193;28;20281;-76
2023/08/20 03:25:05;;;;;;;5.10;4.70;;;;;;;21.89;100.00;101089.63;5053592;28;20204;-76
2023/08/20 03:27:32;;;;;;;6.90;4.27;;;;;;;21.89;100.00;101098.44;5053048;28;20194;-77
2023/08/20 03:30:00;;;;;;;5.47;4.53;;;;;;;21.91;100.00;101107.19;5052844;28;20243;-76
2023/08/20 03:32:27;;;;;;;5.40;4.90;;;;;;;21.92;99.87;101108.91;5053262;28;20251;-76
2023/08/20 03:34:53;;;;;;;4.53;4.23;;;;;;;21.86;97.94;101140.28;5052816;28;20204;-76
2023/08/20 03:37:20;;;;;;;4.80;4.40;;;;;;;21.79;95.40;101176.97;5052939;28;20229;-77
2023/08/20 03:39:47;;;;;;;5.77;5.27;;;;;;;21.85;95.82;101183.75;5052953;28;20212;-77
2023/08/20 03:42:13;;;;;;;5.07;4.50;;;;;;;21.88;96.32;101178.25;5053142;28;20232;-77
2023/08/20 03:44:40;;;;;;;5.60;4.10;;;;;;;21.90;97.27;101160.44;5052841;28;20205;-76
2023/08/20 03:47:07;;;;;;;5.50;3.87;;;;;;;21.90;98.30;101141.81;5053418;28;20209;-76
2023/08/20 03:49:34;;;;;;;4.63;3.67;;;;;;;21.90;98.43;101134.72;5052541;28;20207;-76
2023/08/20 03:52:01;;;;;;;4.10;3.80;;;;;;;21.89;98.39;101143.63;5052297;28;20225;-75
2023/08/20 03:54:28;;;;;;;4.53;4.13;;;;;;;21.90;97.92;101150.69;5052622;28;20246;-76
2023/08/20 03:56:54;;;;;;;3.90;3.50;;;;;;;21.89;97.56;101150.75;5052733;28;20225;-76
2023/08/20 03:59:21;;;;;;;5.40;3.63;;;;;;;21.89;97.36;101159.56;5052032;28;20209;-75
2023/08/20 04:01:47;;;;;;;4.47;4.07;;;;;;;21.87;97.26;101158.81;5052549;28;20244;-75
2023/08/20 04:04:16;;;;;;;4.37;3.83;;;;;;;21.87;97.76;101161.47;5052540;28;20210;-75
2023/08/20 04:06:43;;;;;;;4.17;3.77;;;;;;;21.84;97.62;101164.28;5052664;28;20208;-75
2023/08/20 04:09:10;;;;;;;4.10;3.70;;;;;;;21.58;95.65;101194.91;5052689;28;20207;-76
2023/08/20 04:11:37;;;;;;;3.53;3.23;;;;;;;21.36;96.36;101201.31;5052342;28;20611;-76
2023/08/20 04:14:04;;;;;;;3.87;3.50;;;;;;;21.29;96.60;101188.44;5052036;28;20291;-75
2023/08/20 04:16:30;;;;;;;5.33;3.77;;;;;;;21.34;97.52;101176.63;5052209;28;20581;-75
2023/08/20 04:18:57;;;;;;;4.57;3.43;;;;;;;21.17;96.82;101195.25;5052189;28;20236;-76
2023/08/20 04:21:25;;;;;;;4.43;4.07;;;;;;;20.91;97.46;101188.59;5052288;28;20229;-76
2023/08/20 04:23:51;;;;;;;4.33;3.93;;;;;;;20.77;98.40;101165.41;5052187;28;20208;-75
2023/08/20 04:26:18;;;;;;;4.80;3.83;;;;;;;20.77;100.00;101122.94;5052697;28;20212;-76
2023/08/20 04:28:45;;;;;;;4.43;4.03;;;;;;;20.88;100.00;101080.81;5051892;28;20205;-75
2023/08/20 04:31:11;;;;;;;4.70;3.47;;;;;;;20.86;100.00;101082.69;5052043;28;20206;-76
2023/08/20 04:33:38;;;;;;;4.07;3.13;;;;;;;20.71;100.00;101124.13;5051803;28;20699;-75
2023/08/20 04:36:04;;;;;;;5.30;3.30;;;;;;;20.66;100.00;101101.44;5052217;28;20197;-76
2023/08/20 04:38:32;;;;;;;5.33;3.70;;;;;;;20.50;100.00;101107.47;5052100;28;20690;-76
2023/08/20 04:40:59;;;;;;;4.40;4.00;;;;;;;20.61;100.00;101080.41;5052028;28;20205;-75
2023/08/20 04:43:25;;;;;;;3.40;3.10;;;;;;;20.73;100.00;101047.09;5051312;28;20204;-75
2023/08/20 04:45:52;;;;;;;11.93;3.70;;;;;;;20.87;100.00;101054.34;5051858;28;20665;-75
2023/08/20 04:48:18;;;;;;;3.83;3.30;;;;;;;20.98;100.00;101058.16;5051925;28;20209;-76
2023/08/20 04:50:45;;;;;;;4.13;3.83;;;;;;;21.06;100.00;101063.06;5051735;28;20217;-76
2023/08/20 04:53:11;;;;;;;4.70;4.20;;;;;;;21.15;100.00;101080.28;5051568;28;20706;-75
2023/08/20 04:55:39;;;;;;;4.17;3.80;;;;;;;21.21;100.00;101099.44;5051860;28;20212;-75
2023/08/20 04:58:05;;;;;;;3.70;3.40;;;;;;;21.27;100.00;101114.19;5050872;28;20218;-76
2023/08/20 05:00:32;;;;;;;2.90;2.70;;;;;;;21.30;100.00;101137.06;5051793;28;20624;-75
2023/08/20 05:02:59;;;;;;;6.07;3.70;;;;;;;21.31;99.63;101141.44;5051469;28;20231;-76
2023/08/20 05:05:25;;;;;;;5.40;3.17;;;;;;;21.33;99.26;101156.34;5051756;28;20237;-75
2023/08/20 05:07:52;;;;;;;3.37;3.00;;;;;;;21.31;98.38;101178.63;5051326;28;20200;-75
2023/08/20 05:10:18;;;;;;;3.73;3.40;;;;;;;21.32;98.46;101175.84;5051559;28;20212;-76
2023/08/20 05:12:47;;;;;;;3.70;3.07;;;;;;;21.37;98.15;101184.47;5051322;28;20318;-76
2023/08/20 05:15:14;;;;;;;4.00;3.47;;;;;;;21.41;98.86;101175.38;5051034;28;20666;-76
2023/08/20 05:17:40;;;;;;;4.10;3.23;;;;;;;21.42;98.83;101162.97;5051496;28;20259;-76
2023/08/20 05:20:09;;;;;;;3.20;2.77;;;;;;;21.44;97.96;101173.53;5051077;28;20208;-75
2023/08/20 05:22:36;;;;;;;4.70;3.77;;;;;;;21.44;96.84;101200.94;5051112;28;20599;-75
2023/08/20 05:25:02;;;;;;;5.20;3.00;;;;;;;21.50;97.15;101194.47;5051329;28;20204;-75
2023/08/20 05:27:29;;;;;;;4.07;3.27;;;;;;;21.49;97.93;101175.03;5050916;28;20216;-75
2023/08/20 05:29:57;;;;;;;4.40;3.17;;;;;;;21.51;98.44;101165.16;5051346;28;20201;-75
2023/08/20 05:32:23;;;;;;;4.50;3.60;;;;;;;21.42;97.75;101184.22;5051775;28;20222;-76
2023/08/20 05:34:49;;;;;;;3.40;3.10;;;;;;;21.05;98.64;101186.13;5051195;28;20606;-75
2023/08/20 05:37:16;;;;;;;3.97;3.67;;;;;;;20.84;99.81;101158.88;5051447;28;20578;-75
2023/08/20 05:39:44;;;;;;;4.23;3.10;;;;;;;20.86;100.00;101135.75;5051115;28;20212;-75
2023/08/20 05:42:11;;;;;;;3.77;3.47;;;;;;;20.85;100.00;101102.19;5051129;28;20239;-75
2023/08/20 05:44:38;;;;;;;4.20;3.77;;;;;;;20.69;99.61;101138.41;5050757;28;20208;-75
2023/08/20 05:47:06;;;;;;;4.83;3.77;;;;;;;20.63;100.00;101121.00;5051330;28;20207;-75
2023/08/20 05:49:32;;;;;;;4.60;4.00;;;;;;;20.71;100.00;101094.06;5051018;28;20199;-76
2023/08/20 05:51:59;;;;;;;4.30;3.70;;;;;;;20.74;100.00;101099.25;5051292;28;20231;-75
2023/08/20 05:54:25;;;;;;;4.43;4.03;;;;;;;20.79;100.00;101066.22;5050813;28;20199;-75
2023/08/20 05:56:52;;;;;;;3.20;2.90;;;;;;;20.94;100.00;101050.44;5051308;28;20206;-76
2023/08/20 05:59:18;;;;;;;4.37;3.27;;;;;;;21.06;100.00;101036.50;5050555;28;20229;-75
2023/08/20 06:01:45;;;;;;;3.33;3.13;;;;;;;21.17;100.00;101050.09;5051044;28;20233;-76
2023/08/20 06:04:13;;;;;;;3.50;3.20;;;;;;;21.24;100.00;101069.19;5050932;28;20212;-76
2023/08/20 06:06:40;;;;;;;3.80;3.50;;;;;;;21.30;100.00;101079.47;5051189;28;20221;-76
2023/08/20 06:09:06;;;;;;;4.77;3.10;;;;;;;21.37;100.00;101080.03;5050859;28;20197;-76
2023/08/20 06:11:33;;;;;;;4.00;3.70;;;;;;;21.42;100.00;101081.47;5050997;28;20236;-75
2023/08/20 06:13:59;;;;;;;3.00;2.80;;;;;;;21.47;100.00;101088.38;5051843;28;20220;-76
2023/08/20 06:16:26;;;;;;;4.20;3.13;;;;;;;21.45;100.00;101087.59;5054795;28;20215;-75
2023/08/20 06:18:52;;;;;;;3.30;3.00;;;;;;;21.46;100.00;101100.78;5054178;28;20228;-75
2023/08/20 06:21:20;;;;;;;2.70;2.50;;;;;;;21.20;99.80;101132.22;5054324;28;20224;-75
2023/08/20 06:23:47;;;;;;;3.90;3.00;;;;;;;21.24;99.67;101130.25;5054752;28;20212;-75
2023/08/20 06:26:13;;;;;;;3.70;3.10;;;;;;;21.33;100.00;101116.50;5054438;28;20214;-75
2023/08/20 06:28:40;;;;;;;5.83;3.53;;;;;;;21.35;100.00;101103.16;5053967;28;20678;-75
2023/08/20 06:31:06;;;;;;;3.20;2.90;;;;;;;21.30;100.00;101099.88;5054478;28;20209;-75
2023/08/20 06:33:33;;;;;;;5.03;3.50;;;;;;;21.28;100.00;101115.88;5054227;28;20216;-75
2023/08/20 06:35:59;;;;;;;4.63;3.27;;;;;;;21.35;100.00;101103.16;5054296;28;20686;-75
2023/08/20 06:38:27;;;;;;;4.50;3.23;;;;;;;20.93;100.00;101064.63;5053902;28;20251;-75
2023/08/20 06:40:53;;;;;;;4.87;2.90;;;;;;;20.82;100.00;101012.13;5052495;28;20212;-76
2023/08/20 06:43:20;;;;;;;3.27;2.97;;;;;;;20.75;100.00;100993.03;5054586;28;20244;-76
2023/08/20 06:45:46;;;;;;;3.33;3.03;;;;;;;20.72;100.00;100990.53;5056584;28;20204;-77
2023/08/20 06:48:13;;;;;;;3.80;3.50;;;;;;;20.74;100.00;100969.22;5055296;28;20207;-78
2023/08/20 06:50:39;;;;;;;3.47;3.17;;;;;;;20.65;100.00;100975.00;5055017;28;20221;-78
2023/08/20 06:53:06;;;;;;;5.23;3.70;;;;;;;20.69;100.00;100973.91;5055312;28;20231;-78
2023/08/20 06:55:34;;;;;;;6.67;3.30;;;;;;;20.74;100.00;101006.38;5054545;28;20201;-77
2023/08/20 06:58:01;;;;;;;3.90;3.23;;;;;;;20.76;100.00;101079.66;5053376;28;20710;-77
2023/08/20 07:00:27;;;;;;;3.13;2.83;;;;;;;21.02;100.00;101043.78;5054251;28;20227;-78
2023/08/20 07:02:54;;;;;;;3.80;3.50;;;;;;;20.85;100.00;101111.94;5054017;28;20228;-78
2023/08/20 07:05:20;;;;;;;5.10;3.30;;;;;;;20.97;99.40;101125.47;5054629;28;20675;-77
2023/08/20 07:07:47;;;;;;;4.33;3.93;;;;;;;21.08;100.00;101132.00;5053707;28;20215;-77
2023/08/20 07:10:13;;;;;;;3.57;3.07;;;;;;;21.11;100.00;101110.59;5053738;28;20239;-77
2023/08/20 07:12:41;;;;;;;5.77;3.80;;;;;;;21.09;100.00;101146.97;5053660;28;20595;-77
2023/08/20 07:15:08;;;;;;;5.40;3.50;;;;;;;21.60;98.30;101170.00;5053751;28;20212;-77
2023/08/20 07:17:35;;;;;;;3.67;3.37;;;;;;;21.73;96.73;101199.41;5055138;28;20217;-79
2023/08/20 07:20:03;;;;;;;4.77;3.20;;;;;;;21.85;94.71;101229.78;5055654;28;20232;-79
2023/08/20 07:22:29;;;;;;;3.53;3.23;;;;;;;21.83;92.57;101258.25;5055856;28;20251;-78
2023/08/20 07:24:55;;;;;;;3.93;3.13;;;;;;;21.96;91.98;101296.56;5057016;28;20205;-78
2023/08/20 07:27:22;;;;;;;6.40;3.53;;;;;;;21.57;98.14;101214.47;5056028;28;20258;-77
2023/08/20 07:29:50;;;;;;;6.33;3.03;;;;;;;21.43;100.00;101143.47;5053032;28;20212;-79
2023/08/20 07:32:16;;;;;;;3.93;3.60;;;;;;;21.36;100.00;101080.94;5053373;28;20225;-77
2023/08/20 07:34:43;;;;;;;4.90;2.93;;;;;;;21.31;100.00;101090.97;5053548;28;20219;-78
2023/08/20 07:37:09;;;;;;;3.40;3.10;;;;;;;21.32;100.00;101085.56;5053322;28;20212;-77
2023/08/20 07:39:36;;;;;;;3.97;3.57;;;;;;;21.71;100.00;101104.78;5053281;28;20307;-77
2023/08/20 07:42:02;;;;;;;3.07;2.83;;;;;;;21.91;90.09;101277.31;5053376;28;20685;-78
2023/08/20 07:44:29;;;;;;;3.33;3.03;;;;;;;22.07;91.13;101319.91;5053648;28;20204;-78
2023/08/20 07:46:57;;;;;;;3.47;2.80;;;;;;;22.15;83.71;101455.97;5053256;28;20231;-76
2023/08/20 07:49:23;;;;;;;3.30;3.00;;;;;;;22.09;82.64;101505.97;5052827;28;20200;-76
2023/08/20 07:51:52;;;;;;;5.43;3.70;;;;;;;21.78;83.08;101503.03;5053073;28;20236;-78
2023/08/20 07:54:18;;;;;;;3.57;2.57;;;;;;;21.80;83.13;101521.53;5053099;28;20196;-76
2023/08/20 07:56:45;;;;;;;2.60;2.40;;;;;;;21.80;81.85;101533.06;5051669;28;20208;-76
2023/08/20 07:59:11;;;;;;;3.47;2.60;;;;;;;22.11;81.80;101528.88;5051240;28;20240;-76
2023/08/20 08:01:38;;;;;;;2.77;2.57;;;;;;;22.53;80.79;101535.63;5052140;28;20248;-76
2023/08/20 08:04:06;;;;;;;3.80;3.10;;;;;;;22.71;83.71;101495.69;5052522;28;20208;-76
2023/08/20 08:06:32;;;;;;;3.40;3.10;;;;;;;22.77;81.41;101519.34;5052691;28;20205;-76
2023/08/20 08:09:19;;;;;;;3.07;2.77;;;;;;;22.92;80.96;101533.66;5052444;28;20204;-76
2023/08/20 08:11:46;;;;;;;3.47;2.60;;;;;;;22.95;81.55;101523.69;5052364;28;20226;-76
2023/08/20 08:14:12;;;;;;;3.63;3.23;;;;;;;22.97;82.43;101489.84;5051917;28;20204;-76
2023/08/20 08:16:39;;;;;;;3.50;3.20;;;;;;;22.94;85.54;101410.13;5051450;28;20239;-76
2023/08/20 08:19:07;;;;;;;3.50;3.20;;;;;;;23.02;83.04;101462.13;5052133;28;20226;-76
2023/08/20 08:21:33;;;;;;;3.13;2.93;;;;;;;23.00;76.20;101574.03;5052504;28;20256;-76
2023/08/20 08:23:59;;;;;;;2.70;2.50;;;;;;;23.04;76.18;101617.38;5051591;28;20202;-77
2023/08/20 08:26:26;;;;;;;2.73;2.53;;;;;;;23.15;74.41;101666.50;5046376;28;20678;-76
2023/08/20 08:28:52;;;;;;;2.83;2.63;;;;;;;22.72;80.70;101588.78;5043057;28;20220;-77
2023/08/20 08:31:19;;;;;;;2.97;2.77;;;;;;;22.99;76.53;101602.47;5049626;28;20235;-78
2023/08/20 08:33:45;;;;;;;4.03;3.30;;;;;;;23.31;76.85;101594.59;5048252;28;20667;-76
2023/08/20 08:36:15;;;;;;;3.47;3.17;;;;;;;23.42;75.28;101633.13;5049061;28;20576;-77
2023/08/20 08:38:41;;;;;;;3.10;2.90;;;;;;;23.56;77.21;101598.59;5049822;28;20290;-77
2023/08/20 08:41:11;;;;;;;3.00;2.80;;;;;;;23.57;74.11;101625.16;5050745;28;20297;-77
2023/08/20 08:43:39;;;;;;;3.00;2.23;;;;;;;23.63;74.72;101652.41;5048888;28;20213;-76
2023/08/20 08:46:07;;;;;;;2.90;2.70;;;;;;;23.72;73.35;101673.25;5048157;28;20217;-77
2023/08/20 08:48:35;;;;;;;3.30;3.00;;;;;;;23.75;72.52;101700.63;5048522;28;20197;-77
2023/08/20 08:51:03;;;;;;;3.10;2.80;;;;;;;23.75;70.90;101761.94;5047850;28;20845;-77
2023/08/20 08:53:33;;;;;;;2.80;2.60;;;;;;;23.77;71.33;101759.19;5044091;28;20201;-77
2023/08/20 08:55:59;;;;;;;3.33;2.50;;;;;;;23.86;71.75;101761.38;5045132;28;20235;-77
2023/08/20 08:58:26;;;;;;;2.97;2.70;;;;;;;23.95;71.98;101728.03;5047161;28;20211;-77
2023/08/20 09:00:53;;;;;;;3.10;2.80;;;;;;;23.91;68.94;101794.00;5051535;28;20210;-77
2023/08/20 09:03:20;;;;;;;3.03;2.73;;;;;;;23.90;66.89;101821.63;5051602;28;20213;-76
2023/08/20 09:05:48;;;;;;;3.60;2.50;;;;;;;23.93;67.22;101857.97;5051475;28;20691;-76
2023/08/20 09:08:20;;;;;;;5.53;3.23;;;;;;;24.04;70.64;101804.03;5051116;28;20621;-76
2023/08/20 09:10:50;;;;;;;2.53;2.43;;;;;;;23.91;69.67;101759.34;5051475;28;20251;-76
2023/08/20 09:13:17;;;;;;;3.53;2.93;;;;;;;23.68;69.44;101759.69;5050920;28;20727;-76
2023/08/20 09:15:44;;;;;;;2.70;2.60;;;;;;;23.70;69.90;101779.13;5051545;28;20691;-76
2023/08/20 09:18:11;;;;;;;2.80;2.60;;;;;;;23.85;69.59;101777.50;5048598;28;20207;-75
2023/08/20 09:20:38;;;;;;;2.77;2.57;;;;;;;23.93;75.42;101711.25;5047459;28;20235;-75
2023/08/20 09:23:04;;;;;;;2.90;2.70;;;;;;;23.93;68.62;101784.13;5047363;28;20230;-75
2023/08/20 09:25:31;;;;;;;3.17;2.23;;;;;;;24.04;70.97;101711.50;5045421;28;20210;-75
2023/08/20 09:28:03;;;;;;;2.73;2.40;;;;;;;24.16;73.64;101616.59;5045472;28;20212;-75
2023/08/20 09:30:30;;;;;;;5.63;2.80;;;;;;;24.21;70.07;101713.25;5051727;28;20231;-75
2023/08/20 09:33:08;;;;;;;3.10;2.30;;;;;;;24.27;68.93;101754.75;5051390;28;20235;-75
2023/08/20 09:35:35;;;;;;;2.53;2.17;;;;;;;24.34;64.86;101870.88;5051056;28;20210;-75
2023/08/20 09:38:02;;;;;;;3.40;2.80;;;;;;;24.63;75.11;101654.84;5050862;28;20279;-75
2023/08/20 09:40:30;;;;;;;2.63;2.43;;;;;;;24.34;72.19;101630.66;5045942;28;20714;-75
2023/08/20 09:42:58;;;;;;;2.37;2.17;;;;;;;24.52;64.85;101768.47;5050627;28;20226;-77
2023/08/20 09:45:26;;;;;;;2.17;1.97;;;;;;;24.62;61.34;101901.44;5051477;28;20200;-75
2023/08/20 09:47:56;;;;;;;2.03;1.90;;;;;;;24.69;59.61;101990.97;5052732;28;20303;-75
2023/08/20 09:50:23;;;;;;;3.27;1.87;;;;;;;24.76;60.33;101993.22;5054936;28;20197;-75
2023/08/20 09:53:04;;;;;;;2.13;1.97;;;;;;;24.61;58.40;101953.13;5054205;28;20223;-76
2023/08/20 09:55:35;;;;;;;1.60;1.50;;;;;;;24.75;56.28;102097.47;5051323;28;20229;-76
2023/08/20 09:58:04;;;;;;;3.03;2.23;;;;;;;24.82;59.32;102042.78;5051027;28;20614;-76
2023/08/20 10:00:33;;;;;;;2.28;2.17;;;;;;;24.93;58.22;102067.09;4403681;28;10001918;-77
2023/08/20 10:03:00;;;;;;;2.57;2.20;;;;;;;24.95;60.69;102013.59;5050415;28;20847;-76
2023/08/20 10:05:27;;;;;;;3.13;2.60;;;;;;;25.01;60.57;101991.88;5051628;28;20237;-76
2023/08/20 10:07:56;;;;;;;2.20;2.03;;;;;;;24.96;55.19;102084.78;5051422;28;20296;-76
2023/08/20 10:10:22;;;;;;;2.10;1.90;;;;;;;25.13;56.55;102106.13;5052177;28;20223;-76
2023/08/20 10:12:50;;;;;;;2.60;2.27;;;;;;;25.14;55.16;102058.88;5051266;28;20711;-76
2023/08/20 10:15:18;;;;;;;2.37;1.90;;;;;;;25.21;60.83;102073.63;5051389;28;20203;-76
2023/08/20 10:17:46;;;;;;;2.53;2.33;;;;;;;25.23;60.86;101942.59;5051695;28;20683;-76
2023/08/20 10:20:15;;;;;;;2.40;2.20;;;;;;;25.18;59.80;101925.00;5051333;28;20228;-76
2023/08/20 10:22:42;;;;;;;2.97;2.50;;;;;;;25.13;54.64;102031.31;5051319;28;20294;-76
2023/08/20 10:25:10;;;;;;;2.10;2.00;;;;;;;25.20;53.92;102101.31;5051557;28;20204;-76
2023/08/20 10:27:38;;;;;;;2.10;1.90;;;;;;;25.34;58.57;102101.44;5051177;28;20215;-76
2023/08/20 10:30:15;;;;;;;2.37;1.87;;;;;;;25.50;55.13;102125.53;5051249;28;20208;-77
2023/08/20 10:32:47;;;;;;;2.50;2.40;;;;;;;25.62;60.22;102089.22;5051640;28;20783;-77
2023/08/20 10:35:16;;;;;;;3.83;2.00;;;;;;;25.49;54.11;102123.81;5051025;28;20701;-76
2023/08/20 10:38:05;;;;;;;2.27;2.13;;;;;;;25.57;52.15;102187.59;5051204;28;20754;-76
2023/08/20 10:40:53;;;;;;;2.10;1.80;;;;;;;25.58;50.32;102260.66;5051635;28;20254;-77
2023/08/20 10:43:33;;;;;;;1.67;1.57;;;;;;;25.79;51.15;102267.53;5051315;28;20241;-76
2023/08/20 10:46:17;;;;;;;1.73;1.63;;;;;;;25.88;52.16;102242.91;5051755;28;20254;-76
2023/08/20 10:48:48;;;;;;;1.60;1.50;;;;;;;25.80;49.54;102279.09;5051078;28;20207;-76
2023/08/20 10:51:16;;;;;;;2.07;1.70;;;;;;;25.89;51.23;102287.47;5051139;28;20278;-77
2023/08/20 10:53:48;;;;;;;1.87;1.77;;;;;;;26.01;58.77;102181.59;5051333;28;20251;-78
2023/08/20 10:56:17;;;;;;;2.23;2.10;;;;;;;25.52;68.49;101850.88;5051011;28;20213;-78
2023/08/20 10:58:46;;;;;;;3.00;2.20;;;;;;;25.28;52.75;101972.63;5050393;28;20213;-78
2023/08/20 11:01:17;;;;;;;1.90;1.80;;;;;;;25.38;52.76;102109.31;5054647;28;20689;-77
2023/08/20 11:03:46;;;;;;;1.90;1.80;;;;;;;25.39;52.33;102162.72;5050573;28;20216;-77
2023/08/20 11:06:13;;;;;;;2.27;1.93;;;;;;;25.54;53.35;102179.72;5051092;28;20224;-76
2023/08/20 11:08:40;;;;;;;2.13;2.00;;;;;;;25.68;52.91;102163.75;5050704;28;20760;-76
2023/08/20 11:11:07;;;;;;;2.50;1.90;;;;;;;25.75;52.23;102178.53;5050871;28;20264;-76
2023/08/20 11:13:34;;;;;;;2.23;1.90;;;;;;;25.90;54.83;102149.19;5044767;28;20278;-77
2023/08/20 11:16:01;;;;;;;2.17;1.93;;;;;;;26.06;56.72;102031.44;5050877;28;20687;-76
2023/08/20 11:18:30;;;;;;;2.50;2.30;;;;;;;26.22;63.76;101879.66;5050470;28;20201;-77
2023/08/20 11:20:58;;;;;;;2.30;2.20;;;;;;;26.10;53.64;101923.25;5050457;28;20240;-77